sensor_id;sensor_type;location;lat;lon;timestamp;P1;durP1;ratioP1;P2;durP2;ratioP2
13708;SDS011;54933;51.908;7.730;2023-04-15T00:01:52;0.87;;;0.50;;
13708;SDS011;54933;51.908;7.730;2023-04-15T00:04:17;0.50;;;0.50;;
13708;SDS011;54933;51.908;7.730;2023-04-15T00:06:48;0.93;;;0.90;;
13708;SDS011;54933;51.908;7.730;2023-04-15T00:09:15;1.90;;;0.40;;
13708;SDS011;54933;51.908;7.730;2023-04-15T00:11:40;0.70;;;0.60;;
13708;SDS011;54933;51.908;7.730;2023-04-15T00:14:06;0.83;;;0.30;;
13708;SDS011;54933;51.908;7.730;2023-04-15T00:16:31;1.13;;;0.60;;
13708;SDS011;54933;51.908;7.730;2023-04-15T00:18:56;0.40;;;0.40;;
13708;SDS011;54933;51.908;7.730;2023-04-15T00:21:22;0.90;;;0.60;;
13708;SDS011;54933;51.908;7.730;2023-04-15T00:23:47;0.90;;;0.40;;
13708;SDS011;54933;51.908;7.730;2023-04-15T00:26:16;1.27;;;0.37;;
13708;SDS011;54933;51.908;7.730;2023-04-15T00:28:43;0.57;;;0.57;;
13708;SDS011;54933;51.908;7.730;2023-04-15T00:31:08;0.97;;;0.40;;
13708;SDS011;54933;51.908;7.730;2023-04-15T00:33:34;0.70;;;0.40;;
13708;SDS011;54933;51.908;7.730;2023-04-15T00:36:00;0.50;;;0.50;;
13708;SDS011;54933;51.908;7.730;2023-04-15T00:38:26;1.57;;;0.73;;
13708;SDS011;54933;51.908;7.730;2023-04-15T00:40:52;0.50;;;0.50;;
13708;SDS011;54933;51.908;7.730;2023-04-15T00:43:17;0.70;;;0.70;;
13708;SDS011;54933;51.908;7.730;2023-04-15T00:45:43;0.50;;;0.50;;
13708;SDS011;54933;51.908;7.730;2023-04-15T00:48:08;0.73;;;0.30;;
13708;SDS011;54933;51.908;7.730;2023-04-15T00:50:35;0.20;;;0.20;;
13708;SDS011;54933;51.908;7.730;2023-04-15T00:53:00;0.40;;;0.40;;
13708;SDS011;54933;51.908;7.730;2023-04-15T00:55:26;0.30;;;0.30;;
13708;SDS011;54933;51.908;7.730;2023-04-15T00:57:52;1.07;;;0.50;;
13708;SDS011;54933;51.908;7.730;2023-04-15T01:00:17;1.33;;;0.50;;
13708;SDS011;54933;51.908;7.730;2023-04-15T01:02:44;0.60;;;0.60;;
13708;SDS011;54933;51.908;7.730;2023-04-15T01:05:09;0.40;;;0.40;;
13708;SDS011;54933;51.908;7.730;2023-04-15T01:07:35;0.40;;;0.40;;
13708;SDS011;54933;51.908;7.730;2023-04-15T01:10:01;0.40;;;0.40;;
13708;SDS011;54933;51.908;7.730;2023-04-15T01:12:27;1.60;;;0.47;;
13708;SDS011;54933;51.908;7.730;2023-04-15T01:14:53;0.57;;;0.50;;
13708;SDS011;54933;51.908;7.730;2023-04-15T01:17:19;0.30;;;0.30;;
13708;SDS011;54933;51.908;7.730;2023-04-15T01:19:45;1.00;;;0.43;;
13708;SDS011;54933;51.908;7.730;2023-04-15T01:22:11;0.60;;;0.60;;
13708;SDS011;54933;51.908;7.730;2023-04-15T01:24:36;0.73;;;0.50;;
13708;SDS011;54933;51.908;7.730;2023-04-15T01:27:02;0.50;;;0.43;;
13708;SDS011;54933;51.908;7.730;2023-04-15T01:29:29;0.40;;;0.40;;
13708;SDS011;54933;51.908;7.730;2023-04-15T01:31:55;0.73;;;0.63;;
13708;SDS011;54933;51.908;7.730;2023-04-15T01:34:21;0.47;;;0.47;;
13708;SDS011;54933;51.908;7.730;2023-04-15T01:36:46;0.83;;;0.50;;
13708;SDS011;54933;51.908;7.730;2023-04-15T01:39:12;0.50;;;0.40;;
13708;SDS011;54933;51.908;7.730;2023-04-15T01:41:37;0.60;;;0.57;;
13708;SDS011;54933;51.908;7.730;2023-04-15T01:44:03;0.30;;;0.30;;
13708;SDS011;54933;51.908;7.730;2023-04-15T01:46:29;0.50;;;0.40;;
13708;SDS011;54933;51.908;7.730;2023-04-15T01:48:54;0.67;;;0.43;;
13708;SDS011;54933;51.908;7.730;2023-04-15T01:51:19;0.50;;;0.50;;
13708;SDS011;54933;51.908;7.730;2023-04-15T01:53:45;0.50;;;0.50;;
13708;SDS011;54933;51.908;7.730;2023-04-15T01:56:11;1.43;;;0.60;;
13708;SDS011;54933;51.908;7.730;2023-04-15T01:58:36;0.50;;;0.50;;
13708;SDS011;54933;51.908;7.730;2023-04-15T02:01:01;1.37;;;0.23;;
13708;SDS011;54933;51.908;7.730;2023-04-15T02:03:27;0.50;;;0.50;;
13708;SDS011;54933;51.908;7.730;2023-04-15T02:05:53;0.50;;;0.50;;
13708;SDS011;54933;51.908;7.730;2023-04-15T02:08:19;0.40;;;0.40;;
13708;SDS011;54933;51.908;7.730;2023-04-15T02:10:44;0.30;;;0.30;;
13708;SDS011;54933;51.908;7.730;2023-04-15T02:13:09;0.30;;;0.30;;
13708;SDS011;54933;51.908;7.730;2023-04-15T02:15:34;0.57;;;0.50;;
13708;SDS011;54933;51.908;7.730;2023-04-15T02:18:00;0.47;;;0.47;;
13708;SDS011;54933;51.908;7.730;2023-04-15T02:20:25;0.33;;;0.33;;
13708;SDS011;54933;51.908;7.730;2023-04-15T02:22:51;0.40;;;0.40;;
13708;SDS011;54933;51.908;7.730;2023-04-15T02:25:16;0.50;;;0.50;;
13708;SDS011;54933;51.908;7.730;2023-04-15T02:27:42;0.40;;;0.40;;
13708;SDS011;54933;51.908;7.730;2023-04-15T02:30:08;0.40;;;0.40;;
13708;SDS011;54933;51.908;7.730;2023-04-15T02:32:34;0.43;;;0.43;;
13708;SDS011;54933;51.908;7.730;2023-04-15T02:35:03;0.60;;;0.60;;
13708;SDS011;54933;51.908;7.730;2023-04-15T02:37:29;0.43;;;0.40;;
13708;SDS011;54933;51.908;7.730;2023-04-15T02:39:55;0.80;;;0.53;;
13708;SDS011;54933;51.908;7.730;2023-04-15T02:42:21;0.43;;;0.43;;
13708;SDS011;54933;51.908;7.730;2023-04-15T02:44:46;0.50;;;0.50;;
13708;SDS011;54933;51.908;7.730;2023-04-15T02:47:11;0.60;;;0.60;;
13708;SDS011;54933;51.908;7.730;2023-04-15T02:49:38;0.60;;;0.60;;
13708;SDS011;54933;51.908;7.730;2023-04-15T02:52:04;0.50;;;0.50;;
13708;SDS011;54933;51.908;7.730;2023-04-15T02:54:30;0.63;;;0.63;;
13708;SDS011;54933;51.908;7.730;2023-04-15T02:56:57;0.30;;;0.30;;
13708;SDS011;54933;51.908;7.730;2023-04-15T02:59:23;0.30;;;0.30;;
13708;SDS011;54933;51.908;7.730;2023-04-15T03:01:48;0.30;;;0.30;;
13708;SDS011;54933;51.908;7.730;2023-04-15T03:04:13;0.67;;;0.40;;
13708;SDS011;54933;51.908;7.730;2023-04-15T03:06:38;0.50;;;0.50;;
13708;SDS011;54933;51.908;7.730;2023-04-15T03:09:04;0.30;;;0.30;;
13708;SDS011;54933;51.908;7.730;2023-04-15T03:11:29;0.83;;;0.50;;
13708;SDS011;54933;51.908;7.730;2023-04-15T03:13:55;0.40;;;0.40;;
13708;SDS011;54933;51.908;7.730;2023-04-15T03:16:20;0.33;;;0.33;;
13708;SDS011;54933;51.908;7.730;2023-04-15T03:18:46;0.40;;;0.40;;
13708;SDS011;54933;51.908;7.730;2023-04-15T03:21:11;0.47;;;0.47;;
13708;SDS011;54933;51.908;7.730;2023-04-15T03:23:36;0.63;;;0.63;;
13708;SDS011;54933;51.908;7.730;2023-04-15T03:26:02;0.60;;;0.60;;
13708;SDS011;54933;51.908;7.730;2023-04-15T03:28:27;1.03;;;0.40;;
13708;SDS011;54933;51.908;7.730;2023-04-15T03:30:53;0.43;;;0.43;;
13708;SDS011;54933;51.908;7.730;2023-04-15T03:33:19;0.37;;;0.37;;
13708;SDS011;54933;51.908;7.730;2023-04-15T03:35:44;0.40;;;0.40;;
13708;SDS011;54933;51.908;7.730;2023-04-15T03:38:10;0.50;;;0.50;;
13708;SDS011;54933;51.908;7.730;2023-04-15T03:40:35;0.57;;;0.40;;
13708;SDS011;54933;51.908;7.730;2023-04-15T03:43:01;0.50;;;0.50;;
13708;SDS011;54933;51.908;7.730;2023-04-15T03:45:26;0.40;;;0.40;;
13708;SDS011;54933;51.908;7.730;2023-04-15T03:47:51;0.73;;;0.67;;
13708;SDS011;54933;51.908;7.730;2023-04-15T03:50:16;0.30;;;0.30;;
13708;SDS011;54933;51.908;7.730;2023-04-15T03:52:42;1.17;;;0.30;;
13708;SDS011;54933;51.908;7.730;2023-04-15T03:55:08;0.50;;;0.50;;
13708;SDS011;54933;51.908;7.730;2023-04-15T03:57:33;0.40;;;0.40;;
13708;SDS011;54933;51.908;7.730;2023-04-15T04:00:02;0.30;;;0.30;;
13708;SDS011;54933;51.908;7.730;2023-04-15T04:02:28;0.37;;;0.37;;
13708;SDS011;54933;51.908;7.730;2023-04-15T04:04:53;0.40;;;0.40;;
13708;SDS011;54933;51.908;7.730;2023-04-15T04:07:19;0.50;;;0.50;;
13708;SDS011;54933;51.908;7.730;2023-04-15T04:09:44;0.40;;;0.40;;
13708;SDS011;54933;51.908;7.730;2023-04-15T04:12:09;0.40;;;0.40;;
13708;SDS011;54933;51.908;7.730;2023-04-15T04:14:35;0.40;;;0.40;;
13708;SDS011;54933;51.908;7.730;2023-04-15T04:17:00;0.40;;;0.40;;
13708;SDS011;54933;51.908;7.730;2023-04-15T04:19:25;0.30;;;0.30;;
13708;SDS011;54933;51.908;7.730;2023-04-15T04:21:51;0.50;;;0.50;;
13708;SDS011;54933;51.908;7.730;2023-04-15T04:24:16;0.33;;;0.33;;
13708;SDS011;54933;51.908;7.730;2023-04-15T04:26:41;0.30;;;0.30;;
13708;SDS011;54933;51.908;7.730;2023-04-15T04:29:07;0.40;;;0.40;;
13708;SDS011;54933;51.908;7.730;2023-04-15T04:31:32;0.53;;;0.53;;
13708;SDS011;54933;51.908;7.730;2023-04-15T04:33:57;0.40;;;0.40;;
13708;SDS011;54933;51.908;7.730;2023-04-15T04:36:22;0.43;;;0.37;;
13708;SDS011;54933;51.908;7.730;2023-04-15T04:38:48;0.30;;;0.30;;
13708;SDS011;54933;51.908;7.730;2023-04-15T04:41:13;0.40;;;0.40;;
13708;SDS011;54933;51.908;7.730;2023-04-15T04:43:38;0.40;;;0.40;;
13708;SDS011;54933;51.908;7.730;2023-04-15T04:46:03;0.30;;;0.30;;
13708;SDS011;54933;51.908;7.730;2023-04-15T04:48:29;0.87;;;0.33;;
13708;SDS011;54933;51.908;7.730;2023-04-15T04:50:54;0.60;;;0.60;;
13708;SDS011;54933;51.908;7.730;2023-04-15T04:53:20;0.40;;;0.40;;
13708;SDS011;54933;51.908;7.730;2023-04-15T04:55:45;0.60;;;0.50;;
13708;SDS011;54933;51.908;7.730;2023-04-15T04:58:10;0.30;;;0.30;;
13708;SDS011;54933;51.908;7.730;2023-04-15T05:00:36;0.40;;;0.40;;
13708;SDS011;54933;51.908;7.730;2023-04-15T05:03:02;0.50;;;0.50;;
13708;SDS011;54933;51.908;7.730;2023-04-15T05:05:28;0.40;;;0.40;;
13708;SDS011;54933;51.908;7.730;2023-04-15T05:07:53;0.53;;;0.53;;
13708;SDS011;54933;51.908;7.730;2023-04-15T05:10:18;0.30;;;0.30;;
13708;SDS011;54933;51.908;7.730;2023-04-15T05:12:43;0.37;;;0.37;;
13708;SDS011;54933;51.908;7.730;2023-04-15T05:15:09;0.40;;;0.40;;
13708;SDS011;54933;51.908;7.730;2023-04-15T05:17:34;0.47;;;0.47;;
13708;SDS011;54933;51.908;7.730;2023-04-15T05:20:00;0.70;;;0.70;;
13708;SDS011;54933;51.908;7.730;2023-04-15T05:22:26;0.43;;;0.43;;
13708;SDS011;54933;51.908;7.730;2023-04-15T05:24:51;0.40;;;0.40;;
13708;SDS011;54933;51.908;7.730;2023-04-15T05:27:16;0.40;;;0.40;;
13708;SDS011;54933;51.908;7.730;2023-04-15T05:29:43;0.43;;;0.43;;
13708;SDS011;54933;51.908;7.730;2023-04-15T05:32:08;0.37;;;0.37;;
13708;SDS011;54933;51.908;7.730;2023-04-15T05:34:33;0.73;;;0.50;;
13708;SDS011;54933;51.908;7.730;2023-04-15T05:36:59;0.50;;;0.50;;
13708;SDS011;54933;51.908;7.730;2023-04-15T05:39:24;0.50;;;0.50;;
13708;SDS011;54933;51.908;7.730;2023-04-15T05:41:50;0.40;;;0.40;;
13708;SDS011;54933;51.908;7.730;2023-04-15T05:44:16;0.60;;;0.60;;
13708;SDS011;54933;51.908;7.730;2023-04-15T05:46:41;0.60;;;0.50;;
13708;SDS011;54933;51.908;7.730;2023-04-15T05:49:07;0.67;;;0.67;;
13708;SDS011;54933;51.908;7.730;2023-04-15T05:51:32;0.50;;;0.50;;
13708;SDS011;54933;51.908;7.730;2023-04-15T05:53:57;0.33;;;0.30;;
13708;SDS011;54933;51.908;7.730;2023-04-15T05:56:23;0.60;;;0.60;;
13708;SDS011;54933;51.908;7.730;2023-04-15T05:58:50;0.40;;;0.40;;
13708;SDS011;54933;51.908;7.730;2023-04-15T06:01:16;0.53;;;0.53;;
13708;SDS011;54933;51.908;7.730;2023-04-15T06:03:41;0.57;;;0.57;;
13708;SDS011;54933;51.908;7.730;2023-04-15T06:06:06;0.73;;;0.67;;
13708;SDS011;54933;51.908;7.730;2023-04-15T06:08:32;0.93;;;0.77;;
13708;SDS011;54933;51.908;7.730;2023-04-15T06:10:57;0.27;;;0.27;;
13708;SDS011;54933;51.908;7.730;2023-04-15T06:13:23;0.50;;;0.50;;
13708;SDS011;54933;51.908;7.730;2023-04-15T06:15:48;0.50;;;0.50;;
13708;SDS011;54933;51.908;7.730;2023-04-15T06:18:13;0.50;;;0.50;;
13708;SDS011;54933;51.908;7.730;2023-04-15T06:20:39;0.60;;;0.57;;
13708;SDS011;54933;51.908;7.730;2023-04-15T06:23:04;0.57;;;0.57;;
13708;SDS011;54933;51.908;7.730;2023-04-15T06:25:29;0.60;;;0.43;;
13708;SDS011;54933;51.908;7.730;2023-04-15T06:27:55;0.60;;;0.60;;
13708;SDS011;54933;51.908;7.730;2023-04-15T06:30:20;1.03;;;0.50;;
13708;SDS011;54933;51.908;7.730;2023-04-15T06:32:45;0.43;;;0.43;;
13708;SDS011;54933;51.908;7.730;2023-04-15T06:35:11;0.70;;;0.70;;
13708;SDS011;54933;51.908;7.730;2023-04-15T06:37:36;0.50;;;0.50;;
13708;SDS011;54933;51.908;7.730;2023-04-15T06:40:01;0.50;;;0.50;;
13708;SDS011;54933;51.908;7.730;2023-04-15T06:42:29;0.40;;;0.40;;
13708;SDS011;54933;51.908;7.730;2023-04-15T06:44:54;0.47;;;0.47;;
13708;SDS011;54933;51.908;7.730;2023-04-15T06:47:20;2.53;;;0.60;;
13708;SDS011;54933;51.908;7.730;2023-04-15T06:49:45;2.53;;;0.60;;
13708;SDS011;54933;51.908;7.730;2023-04-15T06:52:10;0.53;;;0.53;;
13708;SDS011;54933;51.908;7.730;2023-04-15T06:54:36;1.53;;;0.60;;
13708;SDS011;54933;51.908;7.730;2023-04-15T06:57:01;0.63;;;0.63;;
13708;SDS011;54933;51.908;7.730;2023-04-15T06:59:27;1.80;;;0.50;;
13708;SDS011;54933;51.908;7.730;2023-04-15T07:01:52;0.67;;;0.67;;
13708;SDS011;54933;51.908;7.730;2023-04-15T07:04:18;1.33;;;0.50;;
13708;SDS011;54933;51.908;7.730;2023-04-15T07:06:44;1.27;;;0.67;;
13708;SDS011;54933;51.908;7.730;2023-04-15T07:09:10;1.57;;;0.80;;
13708;SDS011;54933;51.908;7.730;2023-04-15T07:11:35;0.93;;;0.50;;
13708;SDS011;54933;51.908;7.730;2023-04-15T07:14:00;3.17;;;0.73;;
13708;SDS011;54933;51.908;7.730;2023-04-15T07:16:25;0.50;;;0.50;;
13708;SDS011;54933;51.908;7.730;2023-04-15T07:18:51;0.87;;;0.40;;
13708;SDS011;54933;51.908;7.730;2023-04-15T07:21:16;1.03;;;0.60;;
13708;SDS011;54933;51.908;7.730;2023-04-15T07:23:42;0.73;;;0.70;;
13708;SDS011;54933;51.908;7.730;2023-04-15T07:26:07;1.50;;;0.70;;
13708;SDS011;54933;51.908;7.730;2023-04-15T07:28:33;1.77;;;0.60;;
13708;SDS011;54933;51.908;7.730;2023-04-15T07:30:58;0.40;;;0.40;;
13708;SDS011;54933;51.908;7.730;2023-04-15T07:33:24;0.50;;;0.50;;
13708;SDS011;54933;51.908;7.730;2023-04-15T07:35:49;1.33;;;0.50;;
13708;SDS011;54933;51.908;7.730;2023-04-15T07:38:14;0.63;;;0.60;;
13708;SDS011;54933;51.908;7.730;2023-04-15T07:40:40;0.60;;;0.60;;
13708;SDS011;54933;51.908;7.730;2023-04-15T07:43:06;0.60;;;0.43;;
13708;SDS011;54933;51.908;7.730;2023-04-15T07:45:31;4.60;;;0.53;;
13708;SDS011;54933;51.908;7.730;2023-04-15T07:47:57;0.50;;;0.50;;
13708;SDS011;54933;51.908;7.730;2023-04-15T07:50:22;2.27;;;0.60;;
13708;SDS011;54933;51.908;7.730;2023-04-15T07:52:48;0.50;;;0.50;;
13708;SDS011;54933;51.908;7.730;2023-04-15T07:55:15;1.57;;;0.87;;
13708;SDS011;54933;51.908;7.730;2023-04-15T07:57:43;2.27;;;1.13;;
13708;SDS011;54933;51.908;7.730;2023-04-15T08:00:08;2.57;;;0.97;;
13708;SDS011;54933;51.908;7.730;2023-04-15T08:02:34;5.70;;;1.10;;
13708;SDS011;54933;51.908;7.730;2023-04-15T08:04:59;1.43;;;1.03;;
13708;SDS011;54933;51.908;7.730;2023-04-15T08:07:27;1.50;;;1.40;;
13708;SDS011;54933;51.908;7.730;2023-04-15T08:09:52;1.93;;;1.30;;
13708;SDS011;54933;51.908;7.730;2023-04-15T08:12:17;6.47;;;0.90;;
13708;SDS011;54933;51.908;7.730;2023-04-15T08:14:42;2.43;;;1.00;;
13708;SDS011;54933;51.908;7.730;2023-04-15T08:17:08;5.67;;;1.27;;
13708;SDS011;54933;51.908;7.730;2023-04-15T08:19:33;48.33;;;5.67;;
13708;SDS011;54933;51.908;7.730;2023-04-15T08:21:59;38.43;;;6.40;;
13708;SDS011;54933;51.908;7.730;2023-04-15T08:24:25;28.77;;;3.97;;
13708;SDS011;54933;51.908;7.730;2023-04-15T08:26:51;24.97;;;3.30;;
13708;SDS011;54933;51.908;7.730;2023-04-15T08:29:17;34.30;;;3.53;;
13708;SDS011;54933;51.908;7.730;2023-04-15T08:31:42;10.00;;;2.87;;
13708;SDS011;54933;51.908;7.730;2023-04-15T08:34:08;14.67;;;2.53;;
13708;SDS011;54933;51.908;7.730;2023-04-15T08:36:35;14.93;;;3.27;;
13708;SDS011;54933;51.908;7.730;2023-04-15T08:39:00;5.67;;;1.93;;
13708;SDS011;54933;51.908;7.730;2023-04-15T08:41:27;13.97;;;2.07;;
13708;SDS011;54933;51.908;7.730;2023-04-15T08:44:05;12.23;;;2.07;;
13708;SDS011;54933;51.908;7.730;2023-04-15T08:46:31;6.23;;;1.77;;
13708;SDS011;54933;51.908;7.730;2023-04-15T08:48:58;7.00;;;1.80;;
13708;SDS011;54933;51.908;7.730;2023-04-15T08:51:27;5.93;;;1.40;;
13708;SDS011;54933;51.908;7.730;2023-04-15T08:53:53;5.80;;;1.60;;
13708;SDS011;54933;51.908;7.730;2023-04-15T08:56:18;3.63;;;1.43;;
13708;SDS011;54933;51.908;7.730;2023-04-15T08:58:49;12.77;;;4.77;;
13708;SDS011;54933;51.908;7.730;2023-04-15T09:01:15;12.17;;;3.30;;
13708;SDS011;54933;51.908;7.730;2023-04-15T09:03:41;13.63;;;3.27;;
13708;SDS011;54933;51.908;7.730;2023-04-15T09:06:06;5.37;;;2.00;;
13708;SDS011;54933;51.908;7.730;2023-04-15T09:08:32;8.47;;;1.93;;
13708;SDS011;54933;51.908;7.730;2023-04-15T09:11:01;4.90;;;2.47;;
13708;SDS011;54933;51.908;7.730;2023-04-15T09:13:27;4.20;;;1.80;;
13708;SDS011;54933;51.908;7.730;2023-04-15T09:15:52;4.40;;;1.37;;
13708;SDS011;54933;51.908;7.730;2023-04-15T09:18:28;3.97;;;1.43;;
13708;SDS011;54933;51.908;7.730;2023-04-15T09:20:55;4.57;;;1.27;;
13708;SDS011;54933;51.908;7.730;2023-04-15T09:23:20;5.20;;;1.37;;
13708;SDS011;54933;51.908;7.730;2023-04-15T09:25:46;8.43;;;1.73;;
13708;SDS011;54933;51.908;7.730;2023-04-15T09:28:13;2.70;;;1.30;;
13708;SDS011;54933;51.908;7.730;2023-04-15T09:30:38;5.43;;;1.23;;
13708;SDS011;54933;51.908;7.730;2023-04-15T09:33:10;2.87;;;1.33;;
13708;SDS011;54933;51.908;7.730;2023-04-15T09:35:38;1.50;;;1.23;;
13708;SDS011;54933;51.908;7.730;2023-04-15T09:38:07;4.93;;;0.90;;
13708;SDS011;54933;51.908;7.730;2023-04-15T09:40:34;2.00;;;1.00;;
13708;SDS011;54933;51.908;7.730;2023-04-15T09:43:01;3.10;;;2.17;;
13708;SDS011;54933;51.908;7.730;2023-04-15T09:45:28;3.23;;;1.10;;
13708;SDS011;54933;51.908;7.730;2023-04-15T09:47:53;2.07;;;0.90;;
13708;SDS011;54933;51.908;7.730;2023-04-15T09:50:19;1.27;;;1.07;;
13708;SDS011;54933;51.908;7.730;2023-04-15T09:52:45;9.60;;;1.23;;
13708;SDS011;54933;51.908;7.730;2023-04-15T09:55:11;2.57;;;0.80;;
13708;SDS011;54933;51.908;7.730;2023-04-15T09:57:37;3.07;;;0.70;;
13708;SDS011;54933;51.908;7.730;2023-04-15T10:00:05;0.93;;;0.60;;
13708;SDS011;54933;51.908;7.730;2023-04-15T10:02:33;1.57;;;0.80;;
13708;SDS011;54933;51.908;7.730;2023-04-15T10:05:00;1.70;;;0.70;;
13708;SDS011;54933;51.908;7.730;2023-04-15T10:07:26;2.03;;;0.80;;
13708;SDS011;54933;51.908;7.730;2023-04-15T10:09:51;0.90;;;0.90;;
13708;SDS011;54933;51.908;7.730;2023-04-15T10:12:17;2.57;;;1.10;;
13708;SDS011;54933;51.908;7.730;2023-04-15T10:14:43;3.20;;;0.90;;
13708;SDS011;54933;51.908;7.730;2023-04-15T10:17:12;1.17;;;0.80;;
13708;SDS011;54933;51.908;7.730;2023-04-15T10:19:38;1.50;;;0.80;;
13708;SDS011;54933;51.908;7.730;2023-04-15T10:22:04;2.93;;;0.70;;
13708;SDS011;54933;51.908;7.730;2023-04-15T10:24:30;1.70;;;0.70;;
13708;SDS011;54933;51.908;7.730;2023-04-15T10:26:57;0.97;;;0.90;;
13708;SDS011;54933;51.908;7.730;2023-04-15T10:29:24;0.97;;;0.90;;
13708;SDS011;54933;51.908;7.730;2023-04-15T10:31:51;2.00;;;0.80;;
13708;SDS011;54933;51.908;7.730;2023-04-15T10:34:19;4.20;;;0.73;;
13708;SDS011;54933;51.908;7.730;2023-04-15T10:36:45;1.20;;;1.10;;
13708;SDS011;54933;51.908;7.730;2023-04-15T10:42:11;0.50;;;0.50;;
13708;SDS011;54933;51.908;7.730;2023-04-15T10:44:40;2.27;;;0.77;;
13708;SDS011;54933;51.908;7.730;2023-04-15T10:47:11;0.80;;;0.80;;
13708;SDS011;54933;51.908;7.730;2023-04-15T10:49:48;0.53;;;0.53;;
13708;SDS011;54933;51.908;7.730;2023-04-15T10:52:15;0.50;;;0.50;;
13708;SDS011;54933;51.908;7.730;2023-04-15T10:54:42;29.00;;;3.90;;
13708;SDS011;54933;51.908;7.730;2023-04-15T10:57:12;31.17;;;3.17;;
13708;SDS011;54933;51.908;7.730;2023-04-15T11:02:51;12.37;;;1.47;;
13708;SDS011;54933;51.908;7.730;2023-04-15T11:05:19;9.43;;;1.57;;
13708;SDS011;54933;51.908;7.730;2023-04-15T11:07:53;68.07;;;6.00;;
13708;SDS011;54933;51.908;7.730;2023-04-15T11:12:45;30.80;;;3.17;;
13708;SDS011;54933;51.908;7.730;2023-04-15T11:15:27;39.67;;;2.50;;
13708;SDS011;54933;51.908;7.730;2023-04-15T11:17:58;27.43;;;2.77;;
13708;SDS011;54933;51.908;7.730;2023-04-15T11:20:32;25.73;;;3.03;;
13708;SDS011;54933;51.908;7.730;2023-04-15T11:22:58;20.10;;;2.60;;
13708;SDS011;54933;51.908;7.730;2023-04-15T11:25:24;15.97;;;2.10;;
13708;SDS011;54933;51.908;7.730;2023-04-15T11:27:50;12.87;;;2.13;;
13708;SDS011;54933;51.908;7.730;2023-04-15T11:32:46;13.77;;;2.00;;
13708;SDS011;54933;51.908;7.730;2023-04-15T11:35:11;9.40;;;2.13;;
13708;SDS011;54933;51.908;7.730;2023-04-15T11:37:37;12.07;;;1.70;;
13708;SDS011;54933;51.908;7.730;2023-04-15T11:40:02;10.90;;;1.70;;
13708;SDS011;54933;51.908;7.730;2023-04-15T11:42:28;11.03;;;1.47;;
13708;SDS011;54933;51.908;7.730;2023-04-15T11:45:13;8.90;;;1.47;;
13708;SDS011;54933;51.908;7.730;2023-04-15T11:47:39;8.67;;;2.73;;
13708;SDS011;54933;51.908;7.730;2023-04-15T11:50:16;7.47;;;1.30;;
13708;SDS011;54933;51.908;7.730;2023-04-15T11:52:52;5.37;;;1.60;;
13708;SDS011;54933;51.908;7.730;2023-04-15T11:55:25;3.93;;;1.37;;
13708;SDS011;54933;51.908;7.730;2023-04-15T12:00:59;6.83;;;1.80;;
13708;SDS011;54933;51.908;7.730;2023-04-15T12:03:26;7.07;;;2.00;;
13708;SDS011;54933;51.908;7.730;2023-04-15T12:06:05;3.90;;;1.27;;
13708;SDS011;54933;51.908;7.730;2023-04-15T12:11:16;7.73;;;1.20;;
13708;SDS011;54933;51.908;7.730;2023-04-15T12:13:43;3.27;;;1.10;;
13708;SDS011;54933;51.908;7.730;2023-04-15T12:16:09;3.07;;;0.83;;
13708;SDS011;54933;51.908;7.730;2023-04-15T12:18:38;2.30;;;0.70;;
13708;SDS011;54933;51.908;7.730;2023-04-15T12:21:10;4.47;;;1.50;;
13708;SDS011;54933;51.908;7.730;2023-04-15T12:23:36;1.43;;;0.70;;
13708;SDS011;54933;51.908;7.730;2023-04-15T12:26:05;3.90;;;1.30;;
13708;SDS011;54933;51.908;7.730;2023-04-15T12:28:33;1.80;;;1.70;;
13708;SDS011;54933;51.908;7.730;2023-04-15T12:30:59;3.03;;;1.23;;
13708;SDS011;54933;51.908;7.730;2023-04-15T12:33:33;4.10;;;1.33;;
13708;SDS011;54933;51.908;7.730;2023-04-15T12:35:59;6.90;;;1.63;;
13708;SDS011;54933;51.908;7.730;2023-04-15T12:38:24;7.70;;;1.30;;
13708;SDS011;54933;51.908;7.730;2023-04-15T12:40:49;1.63;;;1.27;;
13708;SDS011;54933;51.908;7.730;2023-04-15T12:43:15;6.70;;;1.03;;
13708;SDS011;54933;51.908;7.730;2023-04-15T12:45:40;3.07;;;1.10;;
13708;SDS011;54933;51.908;7.730;2023-04-15T12:48:06;3.93;;;1.00;;
13708;SDS011;54933;51.908;7.730;2023-04-15T12:50:33;4.87;;;1.20;;
13708;SDS011;54933;51.908;7.730;2023-04-15T12:52:58;5.20;;;1.10;;
13708;SDS011;54933;51.908;7.730;2023-04-15T12:55:23;6.90;;;1.20;;
13708;SDS011;54933;51.908;7.730;2023-04-15T12:57:49;7.87;;;1.40;;
13708;SDS011;54933;51.908;7.730;2023-04-15T13:00:14;6.13;;;2.07;;
13708;SDS011;54933;51.908;7.730;2023-04-15T13:02:40;7.67;;;1.30;;
13708;SDS011;54933;51.908;7.730;2023-04-15T13:05:07;10.47;;;1.50;;
13708;SDS011;54933;51.908;7.730;2023-04-15T13:07:33;4.90;;;2.13;;
13708;SDS011;54933;51.908;7.730;2023-04-15T13:09:58;9.80;;;1.30;;
13708;SDS011;54933;51.908;7.730;2023-04-15T13:12:23;2.57;;;1.10;;
13708;SDS011;54933;51.908;7.730;2023-04-15T13:14:49;9.43;;;0.90;;
13708;SDS011;54933;51.908;7.730;2023-04-15T13:17:14;2.30;;;1.00;;
13708;SDS011;54933;51.908;7.730;2023-04-15T13:19:42;8.47;;;0.80;;
13708;SDS011;54933;51.908;7.730;2023-04-15T13:22:08;5.60;;;0.80;;
13708;SDS011;54933;51.908;7.730;2023-04-15T13:24:33;4.07;;;1.77;;
13708;SDS011;54933;51.908;7.730;2023-04-15T13:26:58;5.07;;;0.80;;
13708;SDS011;54933;51.908;7.730;2023-04-15T13:29:23;4.00;;;0.90;;
13708;SDS011;54933;51.908;7.730;2023-04-15T13:31:49;1.37;;;0.80;;
13708;SDS011;54933;51.908;7.730;2023-04-15T13:34:14;28.57;;;4.63;;
13708;SDS011;54933;51.908;7.730;2023-04-15T13:36:39;13.80;;;2.13;;
13708;SDS011;54933;51.908;7.730;2023-04-15T13:39:04;14.17;;;2.13;;
13708;SDS011;54933;51.908;7.730;2023-04-15T13:41:30;6.40;;;1.53;;
13708;SDS011;54933;51.908;7.730;2023-04-15T13:43:56;18.13;;;2.50;;
13708;SDS011;54933;51.908;7.730;2023-04-15T13:46:22;6.57;;;1.40;;
13708;SDS011;54933;51.908;7.730;2023-04-15T13:48:47;4.23;;;1.70;;
13708;SDS011;54933;51.908;7.730;2023-04-15T13:51:12;10.37;;;1.67;;
13708;SDS011;54933;51.908;7.730;2023-04-15T13:53:38;5.40;;;1.63;;
13708;SDS011;54933;51.908;7.730;2023-04-15T13:56:03;8.43;;;1.20;;
13708;SDS011;54933;51.908;7.730;2023-04-15T13:58:28;9.13;;;1.23;;
13708;SDS011;54933;51.908;7.730;2023-04-15T14:00:54;4.87;;;1.13;;
13708;SDS011;54933;51.908;7.730;2023-04-15T14:03:19;16.30;;;1.63;;
13708;SDS011;54933;51.908;7.730;2023-04-15T14:05:45;11.67;;;1.50;;
13708;SDS011;54933;51.908;7.730;2023-04-15T14:08:10;9.60;;;1.03;;
13708;SDS011;54933;51.908;7.730;2023-04-15T14:10:35;11.50;;;1.30;;
13708;SDS011;54933;51.908;7.730;2023-04-15T14:13:02;89.77;;;6.33;;
13708;SDS011;54933;51.908;7.730;2023-04-15T14:15:27;11.83;;;1.73;;
13708;SDS011;54933;51.908;7.730;2023-04-15T14:17:52;5.73;;;1.03;;
13708;SDS011;54933;51.908;7.730;2023-04-15T14:20:17;7.67;;;1.40;;
13708;SDS011;54933;51.908;7.730;2023-04-15T14:22:43;4.63;;;1.50;;
13708;SDS011;54933;51.908;7.730;2023-04-15T14:25:08;10.63;;;1.20;;
13708;SDS011;54933;51.908;7.730;2023-04-15T14:27:34;11.20;;;1.93;;
13708;SDS011;54933;51.908;7.730;2023-04-15T14:29:59;18.40;;;1.33;;
13708;SDS011;54933;51.908;7.730;2023-04-15T14:32:25;34.33;;;2.53;;
13708;SDS011;54933;51.908;7.730;2023-04-15T14:34:50;11.33;;;1.90;;
13708;SDS011;54933;51.908;7.730;2023-04-15T14:37:16;13.10;;;1.70;;
13708;SDS011;54933;51.908;7.730;2023-04-15T14:39:41;71.20;;;4.43;;
13708;SDS011;54933;51.908;7.730;2023-04-15T14:42:06;70.07;;;5.10;;
13708;SDS011;54933;51.908;7.730;2023-04-15T14:44:31;33.63;;;2.67;;
13708;SDS011;54933;51.908;7.730;2023-04-15T14:46:57;90.23;;;6.73;;
13708;SDS011;54933;51.908;7.730;2023-04-15T14:49:22;27.73;;;2.27;;
13708;SDS011;54933;51.908;7.730;2023-04-15T14:51:47;33.47;;;3.40;;
13708;SDS011;54933;51.908;7.730;2023-04-15T14:54:12;125.93;;;9.00;;
13708;SDS011;54933;51.908;7.730;2023-04-15T14:56:38;20.40;;;2.93;;